Jump to content


AMERICAN AIRLINES FLIGHT AA2516 FLOWN ON 08-02-2017 BY CAPTAIN JIM BOERMAN

Pilot StatsCaptain Jim Boerman (LDP136) • 4,511.1 total hours • 1,375 total flights [View Logbook]
FLIGHT DETAILS
StatusReceived and approved on 2017-08-02 at 11:08:24
Origin AirportCasa De Campo Intl (MDLR) • La Romana, Dominican Republic (240 feet MSL)
Filed Flight PlanFLIGHT PLANNER OFFLINE
Destination AirportMiami Intl (KMIA) • Miami, Florida, United States (8 feet MSL)
Alternate AirportFt Lauderdale-Hollywood Intl (KFLL) • Ft Lauderdale, Florida, United States (9 feet MSL)
AirlineAmerican Airlines
AircraftBoeing 737-800 | Winglets (73H / B737-800)
FS Aircraft UsedBoeing 737-823 American Airlines N959NN
Cruising AltitudeFL360
Distance Flown770 nautical miles
Passengers Onboard90 passengers (55.56% full)
DEPARTURE DETAILS
Time Out08:56:09
Taxi Data141,127 lbs total with 16,452 lbs of fuel onboard
Takeoff Data09:07:20 (11 minutes after leaving gate/ramp) • 140,526 lbs total • 10° pitch at 157 knots
Departure METARMDLR 021200Z 06006KT 9999 FEW016 28/26 Q1017
ARRIVAL DETAILS
Landing Data11:12:21 • 129,923 lbs total • 6° pitch doing 119 knots at a rate of -217.61 feet/minute with 4,960 lbs of fuel onboard
Time In11:19:08 (7 minutes after landing)
Ramp Weight129,635 lbs total
Total Fuel Used11,492 lbs
Total Block Time02:23:14 (2.4 hours) while 18 minutes were spent on the ground
Arrival METARKMIA 021453Z VRB04KT 10SM SCT025 SCT300 31/24 A3013 RMK AO2 SLP201 T03110239 53008 $
MISCELLANEOUS DETAILS
LiveDISPATCH Version4.8.3.1
FS Version
FSUIPC Version5.10
OS VersionWindows 7 32-bit
Screen Resolution1920 x 1080
Pilot's CommentsNo Comments Reported
FLIGHT MAP